Overview Statistics Trail Chart Weather Telemetry Raw packets
 

This is the latest recevied weather packets stored in our database for station/object HS6NYW-3. If no packets are shown the sender has not sent any weather packets the latest 10 day(s).

<< 4 5 6 7 >>
Time Temp. Humidity Pressure Rain* Wind** Luminosity Snow
1788493408 40° C 46% 992 hPa - - 0 W/m² -
1788492789 40° C 46% 992 hPa - - 0 W/m² -
1788492167 40.56° C 45% 992 hPa - - 0 W/m² -
1788491538 40.56° C 46% 992 hPa - - 0 W/m² -
1788490915 40° C 45% 992 hPa - - 0 W/m² -
1788490641 40.56° C 46% 992 hPa - - 0 W/m² -
1788490017 40.56° C 44% 992 hPa - - 0 W/m² -
1788489393 41.11° C 44% 992 hPa - - 0 W/m² -
1788488758 40.56° C 46% 992 hPa - - 0 W/m² -
1788488194 40° C 47% 992 hPa - - 0 W/m² -
1788485031 41.11° C 44% 991 hPa - - 0 W/m² -
1788484408 40.56° C 45% 991 hPa - - 0 W/m² -
1788483784 41.11° C 44% 991 hPa - - 0 W/m² -
1788483161 41.11° C 44% 991 hPa - - 0 W/m² -
1788482538 41.11° C 44% 991 hPa - - 0 W/m² -
1788481916 41.11° C 44% 991 hPa - - 0 W/m² -
1788481293 41.11° C 44% 991 hPa - - 0 W/m² -
1788480670 41.11° C 44% 991 hPa - - 0 W/m² -
1788480046 40° C 46% 991 hPa - - 0 W/m² -
1788479420 40° C 46% 990 hPa - - 0 W/m² -
1788478796 39.44° C 47% 990 hPa - - 0 W/m² -
1788478679 39.44° C 48% 990 hPa - - 0 W/m² -
1788478055 39.44° C 48% 990 hPa - - 0 W/m² -
1788477432 38.33° C 50% 990 hPa - - 0 W/m² -
1788476793 38.89° C 49% 990 hPa - - 0 W/m² -

* Rain since midnight (hover to see other rain measurements)
** Current wind speed in m/s (hover to see current wind gust speed)